Tres Coracoes, Brazil
Current Conditions -  °F | °C
As of 1:00 PM on Sunday 21 Dec 2014 (Local Time) from SBGW Reporting Station
Broken Clouds Broken Clouds  
Wind Chill: 90°   Ceiling: 8000
Heat Index: 90°   Visibility: 6mi
Dew Point: 63°   Wind: 2mph
Humidity: 40%   Direction: 80°E
Pressure: 29.91"   Gusts: NA
Location:  21.69°S, 45.26°W
Report Text: SBGW 211500Z 08002KT 9999 SCT030 BKN080 32/17 Q1013
Loading
Personal Weather Stations






























Interactive Weather Map New forecast layout! Learn more

10-Day Weather Forecast

Advertisements
Track Severe Weather on mobile